createdAt,value
2018-09-01T00:01:07.374Z,15.20
2018-09-01T00:03:35.235Z,15.30
2018-09-01T00:06:02.832Z,15.30
2018-09-01T00:08:30.442Z,15.30
2018-09-01T00:10:58.100Z,15.30
2018-09-01T00:13:26.009Z,15.30
2018-09-01T00:15:53.669Z,15.30
2018-09-01T00:18:21.315Z,15.40
2018-09-01T00:20:48.857Z,15.40
2018-09-01T00:23:16.397Z,15.40
2018-09-01T00:25:44.055Z,15.30
2018-09-01T00:28:11.630Z,15.30
2018-09-01T00:30:39.310Z,15.20
2018-09-01T00:33:06.852Z,15.20
2018-09-01T00:35:34.397Z,15.10
2018-09-01T00:38:07.531Z,15.00
2018-09-01T00:40:35.391Z,15.10
2018-09-01T00:43:03.024Z,15.00
2018-09-01T00:45:30.961Z,15.10
2018-09-01T00:47:58.494Z,15.10
2018-09-01T00:50:26.132Z,15.00
2018-09-01T00:52:53.732Z,15.00
2018-09-01T00:55:26.864Z,14.90
2018-09-01T00:57:54.776Z,14.90
2018-09-01T01:00:22.744Z,14.80
2018-09-01T01:02:51.017Z,14.70
2018-09-01T01:05:18.644Z,14.70
2018-09-01T01:07:46.215Z,14.60
2018-09-01T01:10:13.751Z,14.60
2018-09-01T01:12:41.439Z,14.50
2018-09-01T01:15:09.714Z,14.50
2018-09-01T01:17:37.470Z,14.60
2018-09-01T01:20:05.471Z,14.60
2018-09-01T01:22:33.045Z,14.60
2018-09-01T01:25:00.598Z,14.50
2018-09-01T01:27:28.236Z,14.50
2018-09-01T01:29:55.860Z,14.60
2018-09-01T01:32:23.476Z,14.60
2018-09-01T01:34:51.104Z,14.60
2018-09-01T01:37:18.755Z,14.60
2018-09-01T01:39:46.279Z,14.60
2018-09-01T01:42:13.890Z,14.60
2018-09-01T01:44:41.447Z,14.60
2018-09-01T01:47:09.123Z,14.60
2018-09-01T01:49:36.756Z,14.60
2018-09-01T01:52:04.568Z,14.60
2018-09-01T01:54:32.152Z,14.50
2018-09-01T01:56:59.675Z,14.50
2018-09-01T01:59:27.315Z,14.50
2018-09-01T02:01:54.995Z,14.40
2018-09-01T02:04:22.600Z,14.30
2018-09-01T02:06:50.141Z,14.30
2018-09-01T02:09:17.643Z,14.30
2018-09-01T02:11:45.322Z,14.30
2018-09-01T02:14:13.034Z,14.20
2018-09-01T02:16:40.628Z,14.20
2018-09-01T02:19:08.248Z,14.20
2018-09-01T02:21:36.820Z,14.20
2018-09-01T02:24:04.467Z,14.10
2018-09-01T02:26:32.191Z,14.10
2018-09-01T02:28:59.749Z,14.10
2018-09-01T02:31:27.771Z,14.10
2018-09-01T02:33:55.740Z,14.10
2018-09-01T02:36:23.431Z,14.00
2018-09-01T02:38:51.043Z,14.00
2018-09-01T02:41:18.709Z,14.00
2018-09-01T02:43:46.332Z,13.90
2018-09-01T02:46:14.035Z,13.90
2018-09-01T02:48:41.688Z,13.90
2018-09-01T02:51:09.876Z,13.90
2018-09-01T02:53:37.677Z,13.80
2018-09-01T02:56:05.674Z,13.80
2018-09-01T02:58:33.276Z,13.70
2018-09-01T03:01:06.572Z,13.70
2018-09-01T03:03:34.392Z,13.70
2018-09-01T03:06:02.137Z,13.70
2018-09-01T03:08:29.799Z,13.60
2018-09-01T03:10:57.424Z,13.60
2018-09-01T03:13:25.000Z,13.60
2018-09-01T03:15:52.570Z,13.50
2018-09-01T03:18:20.085Z,13.50
2018-09-01T03:20:47.701Z,13.50
2018-09-01T03:23:15.316Z,13.50
2018-09-01T03:25:43.201Z,13.50
2018-09-01T03:28:10.960Z,13.50
2018-09-01T03:30:38.481Z,13.50
2018-09-01T03:33:06.127Z,13.50
2018-09-01T03:35:33.729Z,13.40
2018-09-01T03:38:01.511Z,13.40
2018-09-01T03:40:29.161Z,13.40
2018-09-01T03:42:56.782Z,13.40
2018-09-01T03:45:24.292Z,13.40
2018-09-01T03:47:52.730Z,13.40
2018-09-01T03:50:20.277Z,13.40
2018-09-01T03:52:47.978Z,13.40
2018-09-01T03:55:15.645Z,13.30
2018-09-01T03:57:43.259Z,13.30
2018-09-01T04:00:10.883Z,13.30
2018-09-01T04:02:38.518Z,13.30
2018-09-01T04:05:06.603Z,13.30
2018-09-01T04:07:34.258Z,13.30
2018-09-01T04:10:02.256Z,13.30
2018-09-01T04:12:29.801Z,13.30
2018-09-01T04:14:57.439Z,13.30
2018-09-01T04:17:25.220Z,13.30
2018-09-01T04:19:52.752Z,13.30
2018-09-01T04:22:20.458Z,13.30
2018-09-01T04:24:48.000Z,13.30
2018-09-01T04:27:15.670Z,13.30
2018-09-01T04:29:43.317Z,13.30
2018-09-01T04:32:11.050Z,13.30
2018-09-01T04:34:38.604Z,13.30
2018-09-01T04:37:06.171Z,13.30
2018-09-01T04:39:33.848Z,13.30
2018-09-01T04:42:01.528Z,13.30
2018-09-01T04:44:29.152Z,13.30
2018-09-01T04:46:56.778Z,13.30
2018-09-01T04:49:24.392Z,13.40
2018-09-01T04:51:51.880Z,13.40
2018-09-01T04:54:19.743Z,13.40
2018-09-01T04:56:47.399Z,13.40
2018-09-01T04:59:14.927Z,13.40
2018-09-01T05:01:42.467Z,13.50
2018-09-01T05:04:10.102Z,13.50
2018-09-01T05:06:37.761Z,13.50
2018-09-01T05:09:06.731Z,13.60
2018-09-01T05:11:34.299Z,13.70
2018-09-01T05:14:01.947Z,13.90
2018-09-01T05:16:29.642Z,14.00
2018-09-01T05:18:57.307Z,14.10
2018-09-01T05:21:24.946Z,14.20
2018-09-01T05:23:52.798Z,14.20
2018-09-01T05:26:20.436Z,14.20
2018-09-01T05:28:48.193Z,14.30
2018-09-01T05:31:15.803Z,14.30
2018-09-01T05:33:43.510Z,14.30
2018-09-01T05:36:11.147Z,14.30
2018-09-01T05:38:38.978Z,14.30
2018-09-01T05:41:06.760Z,14.30
2018-09-01T05:43:34.444Z,14.30
2018-09-01T05:46:02.169Z,14.30
2018-09-01T05:48:29.707Z,14.30
2018-09-01T05:50:57.381Z,14.30
2018-09-01T05:53:24.928Z,14.30
2018-09-01T05:55:52.630Z,14.30
2018-09-01T05:58:20.248Z,14.40
2018-09-01T06:00:49.137Z,14.40
2018-09-01T06:03:17.251Z,14.40
2018-09-01T06:05:45.338Z,14.40
2018-09-01T06:08:12.878Z,14.40
2018-09-01T06:10:40.436Z,14.50
2018-09-01T06:13:07.975Z,14.50
2018-09-01T06:15:35.655Z,14.50
2018-09-01T06:18:03.526Z,14.60
2018-09-01T06:20:31.096Z,14.70
2018-09-01T06:22:58.743Z,14.70
2018-09-01T06:25:26.401Z,14.70
2018-09-01T06:27:56.189Z,14.80
2018-09-01T06:30:30.431Z,14.90
2018-09-01T06:32:58.487Z,15.00
2018-09-01T06:35:26.070Z,15.00
2018-09-01T06:37:53.683Z,15.10
2018-09-01T06:40:21.250Z,15.20
2018-09-01T06:42:48.803Z,15.30
2018-09-01T06:45:16.415Z,15.40
2018-09-01T06:47:43.975Z,15.50
2018-09-01T06:50:11.593Z,15.60
2018-09-01T06:52:39.391Z,15.70
2018-09-01T06:55:07.172Z,15.90
2018-09-01T06:57:34.737Z,16.30
2018-09-01T07:00:02.714Z,16.50
2018-09-01T07:02:30.364Z,16.90
2018-09-01T07:04:57.902Z,17.50
2018-09-01T07:07:25.523Z,17.80
2018-09-01T07:09:53.278Z,18.00
2018-09-01T07:12:20.877Z,18.20
2018-09-01T07:14:48.511Z,18.50
2018-09-01T07:17:16.128Z,18.70
2018-09-01T07:19:43.852Z,18.90
2018-09-01T07:22:11.334Z,19.10
2018-09-01T07:24:39.130Z,19.30
2018-09-01T07:27:06.860Z,19.50
2018-09-01T07:29:34.431Z,19.80
2018-09-01T07:32:01.988Z,20.00
2018-09-01T07:34:29.639Z,20.20
2018-09-01T07:36:57.186Z,20.40
2018-09-01T07:39:24.748Z,20.40
2018-09-01T07:41:52.574Z,20.60
2018-09-01T07:44:20.185Z,20.60
2018-09-01T07:46:47.867Z,20.50
2018-09-01T07:49:15.397Z,20.50
2018-09-01T07:51:42.946Z,20.50
2018-09-01T07:54:10.486Z,20.60
2018-09-01T07:56:38.120Z,20.40
2018-09-01T07:59:05.780Z,20.50
2018-09-01T08:01:33.379Z,20.70
2018-09-01T08:04:01.187Z,20.90
2018-09-01T08:06:28.885Z,21.10
2018-09-01T08:08:56.495Z,21.60
2018-09-01T08:11:24.156Z,22.30
2018-09-01T08:13:51.663Z,23.30
2018-09-01T08:16:19.428Z,24.10
2018-09-01T08:18:47.040Z,25.20
2018-09-01T08:21:14.621Z,26.60
2018-09-01T08:23:42.153Z,28.10
2018-09-01T08:26:10.181Z,30.00
2018-09-01T08:28:37.608Z,31.70
2018-09-01T08:31:05.191Z,33.70
2018-09-01T08:33:33.100Z,35.20
2018-09-01T08:36:00.683Z,36.40
2018-09-01T08:38:28.294Z,38.00
2018-09-01T08:40:55.901Z,38.70
2018-09-01T08:43:23.584Z,38.60
2018-09-01T08:45:51.145Z,38.00
2018-09-01T08:48:18.975Z,37.30
2018-09-01T08:50:46.572Z,36.30
2018-09-01T08:53:14.465Z,35.30
2018-09-01T08:55:42.398Z,34.50
2018-09-01T08:58:10.075Z,33.70
2018-09-01T09:00:37.692Z,33.90
2018-09-01T09:03:05.617Z,34.90
2018-09-01T09:05:33.297Z,36.10
2018-09-01T09:08:00.948Z,37.50
2018-09-01T09:10:28.690Z,37.90
2018-09-01T09:12:56.666Z,38.40
2018-09-01T09:15:24.316Z,38.90
2018-09-01T09:17:52.310Z,38.40
2018-09-01T09:20:20.064Z,37.10
2018-09-01T09:22:47.840Z,34.80
2018-09-01T09:25:15.865Z,33.60
2018-09-01T09:27:43.464Z,33.40
2018-09-01T09:30:11.149Z,33.20
2018-09-01T09:32:38.735Z,33.20
2018-09-01T09:35:06.296Z,33.90
2018-09-01T09:37:34.111Z,34.60
2018-09-01T09:40:01.795Z,34.70
2018-09-01T09:42:29.399Z,33.50
2018-09-01T09:44:57.095Z,34.20
2018-09-01T09:47:24.765Z,35.10
2018-09-01T09:49:52.381Z,35.70
2018-09-01T09:52:20.066Z,36.40
2018-09-01T09:54:47.898Z,37.30
2018-09-01T09:57:15.544Z,37.40
2018-09-01T09:59:43.168Z,37.70
2018-09-01T10:02:10.684Z,38.40
2018-09-01T10:04:38.214Z,38.80
2018-09-01T10:07:05.791Z,37.30
2018-09-01T10:09:33.382Z,37.30
2018-09-01T10:12:00.934Z,36.50
2018-09-01T10:14:28.476Z,35.00
2018-09-01T10:16:56.284Z,33.00
2018-09-01T10:19:23.951Z,31.40
2018-09-01T10:21:51.491Z,29.70
2018-09-01T10:24:19.229Z,28.70
2018-09-01T10:26:46.987Z,28.50
2018-09-01T10:29:14.587Z,28.30
2018-09-01T10:31:42.216Z,28.70
2018-09-01T10:34:09.785Z,28.20
2018-09-01T10:36:37.588Z,27.90
2018-09-01T10:39:07.853Z,27.50
2018-09-01T10:41:35.642Z,28.70
2018-09-01T10:44:03.483Z,29.10
2018-09-01T10:46:31.097Z,28.80
2018-09-01T10:48:58.878Z,30.70
2018-09-01T10:51:26.641Z,32.70
2018-09-01T10:53:54.287Z,34.50
2018-09-01T10:56:21.952Z,35.50
2018-09-01T10:58:49.674Z,36.10
2018-09-01T11:01:17.247Z,35.90
2018-09-01T11:03:45.083Z,34.40
2018-09-01T11:06:12.800Z,33.00
2018-09-01T11:08:40.459Z,31.30
2018-09-01T11:11:08.364Z,30.50
2018-09-01T11:13:35.996Z,30.90
2018-09-01T11:16:03.770Z,32.20
2018-09-01T11:18:31.418Z,30.50
2018-09-01T11:20:59.222Z,29.10
2018-09-01T11:23:26.754Z,28.80
2018-09-01T11:25:54.405Z,29.40
2018-09-01T11:28:22.040Z,29.60
2018-09-01T11:30:49.786Z,29.20
2018-09-01T11:33:17.396Z,28.70
2018-09-01T11:35:45.075Z,29.70
2018-09-01T11:38:12.823Z,29.90
2018-09-01T11:40:40.582Z,29.60
2018-09-01T11:43:08.376Z,29.20
2018-09-01T11:45:35.810Z,28.60
2018-09-01T11:48:03.509Z,28.40
2018-09-01T11:50:31.085Z,28.30
2018-09-01T11:52:58.779Z,28.20
2018-09-01T11:55:26.297Z,28.20
2018-09-01T11:57:53.923Z,29.20
2018-09-01T12:00:21.788Z,30.10
2018-09-01T12:02:49.770Z,30.70
2018-09-01T12:05:17.407Z,29.90
2018-09-01T12:07:45.206Z,29.50
2018-09-01T12:10:12.800Z,29.70
2018-09-01T12:12:40.308Z,29.60
2018-09-01T12:15:07.944Z,29.30
2018-09-01T12:17:35.613Z,29.70
2018-09-01T12:20:03.198Z,30.50
2018-09-01T12:22:30.900Z,31.40
2018-09-01T12:24:58.498Z,31.20
2018-09-01T12:27:26.208Z,30.00
2018-09-01T12:29:53.849Z,29.30
2018-09-01T12:32:21.503Z,29.00
2018-09-01T12:34:49.389Z,29.20
2018-09-01T12:37:17.050Z,29.40
2018-09-01T12:39:44.713Z,29.30
2018-09-01T12:42:12.472Z,29.10
2018-09-01T12:44:40.213Z,28.90
2018-09-01T12:47:08.174Z,28.90
2018-09-01T12:49:36.094Z,28.20
2018-09-01T12:52:03.747Z,27.90
2018-09-01T12:54:31.409Z,27.50
2018-09-01T12:56:59.137Z,27.10
2018-09-01T12:59:26.831Z,27.00
2018-09-01T13:01:54.519Z,26.90
2018-09-01T13:04:22.183Z,26.70
2018-09-01T13:06:49.817Z,27.00
2018-09-01T13:09:17.375Z,27.30
2018-09-01T13:11:44.940Z,27.60
2018-09-01T13:14:12.579Z,28.00
2018-09-01T13:16:40.155Z,28.50
2018-09-01T13:19:07.715Z,28.20
2018-09-01T13:21:35.298Z,28.40
2018-09-01T13:24:02.881Z,28.70
2018-09-01T13:26:30.455Z,28.80
2018-09-01T13:28:58.122Z,28.80
2018-09-01T13:31:25.994Z,28.60
2018-09-01T13:33:53.766Z,28.50
2018-09-01T13:36:21.612Z,28.20
2018-09-01T13:38:49.268Z,28.40
2018-09-01T13:41:16.754Z,29.00
2018-09-01T13:43:44.313Z,29.30
2018-09-01T13:46:12.077Z,29.40
2018-09-01T13:48:39.761Z,29.40
2018-09-01T13:51:07.633Z,29.50
2018-09-01T13:53:35.508Z,29.40
2018-09-01T13:56:03.130Z,29.30
2018-09-01T13:58:30.797Z,29.00
2018-09-01T14:00:58.555Z,29.00
2018-09-01T14:03:26.363Z,28.80
2018-09-01T14:05:54.102Z,28.90
2018-09-01T14:08:21.777Z,29.10
2018-09-01T14:10:49.607Z,29.20
2018-09-01T14:13:18.099Z,29.00
2018-09-01T14:15:45.891Z,28.90
2018-09-01T14:18:13.689Z,29.10
2018-09-01T14:20:41.280Z,28.90
2018-09-01T14:23:08.854Z,28.90
2018-09-01T14:25:36.892Z,29.10
2018-09-01T14:28:04.717Z,29.40
2018-09-01T14:30:33.014Z,28.90
2018-09-01T14:33:00.718Z,28.20
2018-09-01T14:35:28.214Z,27.70
2018-09-01T14:37:55.776Z,27.70
2018-09-01T14:40:23.289Z,27.90
2018-09-01T14:42:50.916Z,27.90
2018-09-01T14:45:18.547Z,27.80
2018-09-01T14:47:46.203Z,27.50
2018-09-01T14:50:13.864Z,27.20
2018-09-01T14:52:41.484Z,26.80
2018-09-01T14:55:09.183Z,26.50
2018-09-01T14:57:36.813Z,26.20
2018-09-01T15:00:05.312Z,26.30
2018-09-01T15:02:32.832Z,26.80
2018-09-01T15:05:00.493Z,26.90
2018-09-01T15:07:28.001Z,26.90
2018-09-01T15:09:55.670Z,26.80
2018-09-01T15:12:23.343Z,26.70
2018-09-01T15:14:51.023Z,26.70
2018-09-01T15:17:18.594Z,27.00
2018-09-01T15:19:46.241Z,27.20
2018-09-01T15:22:13.836Z,26.90
2018-09-01T15:24:41.446Z,26.40
2018-09-01T15:27:09.000Z,26.10
2018-09-01T15:29:36.675Z,25.90
2018-09-01T15:32:04.372Z,25.80
2018-09-01T15:34:32.326Z,26.30
2018-09-01T15:36:59.979Z,26.90
2018-09-01T15:39:27.514Z,27.40
2018-09-01T15:41:55.119Z,27.30
2018-09-01T15:44:22.777Z,27.30
2018-09-01T15:46:50.368Z,27.20
2018-09-01T15:49:17.952Z,27.40
2018-09-01T15:51:45.538Z,27.20
2018-09-01T15:54:13.093Z,27.00
2018-09-01T15:56:40.712Z,26.80
2018-09-01T15:59:08.333Z,26.40
2018-09-01T16:01:35.906Z,25.80
2018-09-01T16:04:03.475Z,25.50
2018-09-01T16:06:31.062Z,25.30
2018-09-01T16:08:58.648Z,25.20
2018-09-01T16:11:26.420Z,25.10
2018-09-01T16:13:53.957Z,24.90
2018-09-01T16:16:21.563Z,24.70
2018-09-01T16:18:49.242Z,24.60
2018-09-01T16:21:16.816Z,24.50
2018-09-01T16:23:44.369Z,24.40
2018-09-01T16:26:11.917Z,24.20
2018-09-01T16:28:39.495Z,24.10
2018-09-01T16:31:07.147Z,23.90
2018-09-01T16:33:34.708Z,23.80
2018-09-01T16:36:02.370Z,23.70
2018-09-01T16:38:29.980Z,23.50
2018-09-01T16:40:57.584Z,23.50
2018-09-01T16:43:25.213Z,23.40
2018-09-01T16:45:52.776Z,23.30
2018-09-01T16:48:20.326Z,23.20
2018-09-01T16:50:47.917Z,23.10
2018-09-01T16:53:15.531Z,23.20
2018-09-01T16:55:43.126Z,23.10
2018-09-01T16:58:10.719Z,23.10
2018-09-01T17:00:38.417Z,23.00
2018-09-01T17:03:05.992Z,22.90
2018-09-01T17:05:33.566Z,22.90
2018-09-01T17:08:01.227Z,22.90
2018-09-01T17:10:28.856Z,22.90
2018-09-01T17:12:56.446Z,22.80
2018-09-01T17:15:24.252Z,22.80
2018-09-01T17:17:51.944Z,22.70
2018-09-01T17:20:19.558Z,22.60
2018-09-01T17:22:47.223Z,22.50
2018-09-01T17:25:14.856Z,22.30
2018-09-01T17:27:42.550Z,22.10
2018-09-01T17:30:10.135Z,22.00
2018-09-01T17:32:37.716Z,21.90
2018-09-01T17:35:05.380Z,21.80
2018-09-01T17:37:33.034Z,21.70
2018-09-01T17:40:01.415Z,21.60
2018-09-01T17:42:29.025Z,21.50
2018-09-01T17:44:56.655Z,21.50
2018-09-01T17:47:24.281Z,21.50
2018-09-01T17:49:51.912Z,21.50
2018-09-01T17:52:19.524Z,21.40
2018-09-01T17:54:47.190Z,21.40
2018-09-01T17:57:14.857Z,21.30
2018-09-01T17:59:42.451Z,21.20
2018-09-01T18:02:10.299Z,21.20
2018-09-01T18:04:37.944Z,21.30
2018-09-01T18:07:05.969Z,21.20
2018-09-01T18:09:33.536Z,21.10
2018-09-01T18:12:01.150Z,21.10
2018-09-01T18:14:28.738Z,21.10
2018-09-01T18:16:56.334Z,21.00
2018-09-01T18:19:23.964Z,21.00
2018-09-01T18:21:51.624Z,20.90
2018-09-01T18:24:19.213Z,20.90
2018-09-01T18:26:46.926Z,20.90
2018-09-01T18:29:14.524Z,20.80
2018-09-01T18:31:42.137Z,20.70
2018-09-01T18:34:09.726Z,20.70
2018-09-01T18:36:37.413Z,20.70
2018-09-01T18:39:06.649Z,20.60
2018-09-01T18:41:34.217Z,20.50
2018-09-01T18:44:01.842Z,20.50
2018-09-01T18:46:29.496Z,20.50
2018-09-01T18:48:57.044Z,20.50
2018-09-01T18:51:24.657Z,20.40
2018-09-01T18:53:52.318Z,20.40
2018-09-01T18:56:20.286Z,20.30
2018-09-01T18:58:47.878Z,20.30
2018-09-01T19:01:15.450Z,20.30
2018-09-01T19:03:43.109Z,20.30
2018-09-01T19:06:10.735Z,20.30
2018-09-01T19:08:45.211Z,20.20
2018-09-01T19:11:12.897Z,20.20
2018-09-01T19:13:40.508Z,20.30
2018-09-01T19:16:08.149Z,20.20
2018-09-01T19:18:36.109Z,20.10
2018-09-01T19:21:03.983Z,20.00
2018-09-01T19:23:31.601Z,19.90
2018-09-01T19:25:59.185Z,19.80
2018-09-01T19:28:26.780Z,19.80
2018-09-01T19:30:54.404Z,19.70
2018-09-01T19:33:22.026Z,19.60
2018-09-01T19:35:50.078Z,19.60
2018-09-01T19:38:17.729Z,19.50
2018-09-01T19:40:45.468Z,19.50
2018-09-01T19:43:13.166Z,19.40
2018-09-01T19:45:41.045Z,19.40
2018-09-01T19:48:08.388Z,19.30
2018-09-01T19:50:36.042Z,19.30
2018-09-01T19:53:04.052Z,19.30
2018-09-01T19:55:31.674Z,19.20
2018-09-01T19:57:59.219Z,19.10
2018-09-01T20:00:26.806Z,19.00
2018-09-01T20:02:54.506Z,18.90
2018-09-01T20:05:22.284Z,18.80
2018-09-01T20:07:50.102Z,18.70
2018-09-01T20:10:17.770Z,18.70
2018-09-01T20:12:45.370Z,18.70
2018-09-01T20:15:12.921Z,18.60
2018-09-01T20:17:40.499Z,18.60
2018-09-01T20:20:08.644Z,18.60
2018-09-01T20:22:36.250Z,18.60
2018-09-01T20:25:03.927Z,18.50
2018-09-01T20:27:31.548Z,18.50
2018-09-01T20:29:59.163Z,18.50
2018-09-01T20:32:26.790Z,18.50
2018-09-01T20:34:58.912Z,18.50
2018-09-01T20:37:26.541Z,18.50
2018-09-01T20:39:54.168Z,18.40
2018-09-01T20:42:21.756Z,18.40
2018-09-01T20:44:49.349Z,18.40
2018-09-01T20:47:16.929Z,18.30
2018-09-01T20:49:44.501Z,18.30
2018-09-01T20:52:12.092Z,18.20
2018-09-01T20:54:39.658Z,18.20
2018-09-01T20:57:07.260Z,18.20
2018-09-01T20:59:34.815Z,18.10
2018-09-01T21:02:02.460Z,18.10
2018-09-01T21:04:30.047Z,18.00
2018-09-01T21:06:57.659Z,18.00
2018-09-01T21:09:25.225Z,18.00
2018-09-01T21:11:52.783Z,18.00
2018-09-01T21:14:20.410Z,18.00
2018-09-01T21:16:47.964Z,18.00
2018-09-01T21:19:15.594Z,18.00
2018-09-01T21:21:43.201Z,17.90
2018-09-01T21:24:11.356Z,18.00
2018-09-01T21:26:39.012Z,18.00
2018-09-01T21:29:07.200Z,17.90
2018-09-01T21:31:34.781Z,18.00
2018-09-01T21:34:02.416Z,18.20
2018-09-01T21:36:29.972Z,18.30
2018-09-01T21:38:57.529Z,18.30
2018-09-01T21:41:25.135Z,18.30
2018-09-01T21:43:52.694Z,18.30
2018-09-01T21:46:20.215Z,18.30
2018-09-01T21:48:47.798Z,18.30
2018-09-01T21:51:15.371Z,18.20
2018-09-01T21:53:42.948Z,18.20
2018-09-01T21:56:10.632Z,18.20
2018-09-01T21:58:38.184Z,18.10
2018-09-01T22:01:11.699Z,18.10
2018-09-01T22:03:44.899Z,18.10
2018-09-01T22:06:12.471Z,18.00
2018-09-01T22:08:40.066Z,18.00
2018-09-01T22:11:07.583Z,18.00
2018-09-01T22:13:35.132Z,18.00
2018-09-01T22:16:02.678Z,17.90
2018-09-01T22:18:30.241Z,17.90
2018-09-01T22:20:57.802Z,17.90
2018-09-01T22:23:25.483Z,17.90
2018-09-01T22:25:53.047Z,17.80
2018-09-01T22:28:21.071Z,17.80
2018-09-01T22:30:48.639Z,17.80
2018-09-01T22:33:16.183Z,17.80
2018-09-01T22:35:44.007Z,17.80
2018-09-01T22:38:11.626Z,17.80
2018-09-01T22:40:39.217Z,17.80
2018-09-01T22:43:06.901Z,17.70
2018-09-01T22:45:34.573Z,17.70
2018-09-01T22:48:02.157Z,17.70
2018-09-01T22:50:29.929Z,17.70
2018-09-01T22:52:57.473Z,17.70
2018-09-01T22:55:25.149Z,17.70
2018-09-01T22:57:52.676Z,17.70
2018-09-01T23:00:20.273Z,17.60
2018-09-01T23:02:47.876Z,17.60
2018-09-01T23:05:15.410Z,17.60
2018-09-01T23:07:42.975Z,17.60
2018-09-01T23:10:10.565Z,17.60
2018-09-01T23:12:38.256Z,17.40
2018-09-01T23:15:05.840Z,17.30
2018-09-01T23:17:33.406Z,17.30
2018-09-01T23:20:01.017Z,17.20
2018-09-01T23:22:28.837Z,17.10
2018-09-01T23:24:56.444Z,17.10
2018-09-01T23:27:24.081Z,17.10
2018-09-01T23:29:51.715Z,17.10
2018-09-01T23:32:19.273Z,17.10
2018-09-01T23:34:46.808Z,17.10
2018-09-01T23:37:14.338Z,17.00
2018-09-01T23:39:41.864Z,17.00
2018-09-01T23:42:09.431Z,17.00
2018-09-01T23:44:36.945Z,17.00
2018-09-01T23:47:04.492Z,17.00
2018-09-01T23:49:32.084Z,17.00
2018-09-01T23:51:59.612Z,16.90
2018-09-01T23:54:27.160Z,16.90
2018-09-01T23:56:54.694Z,16.90
2018-09-01T23:59:22.398Z,16.90
